New Harbour, Canada
Current Conditions -  °F | °C
As of 1:00 PM on Wednesday 22 Oct 2014 (Local Time) from CYYT Reporting Station
Broken Clouds Broken Clouds  
Wind Chill:   Ceiling: 15000
Heat Index:   Visibility: 15mi
Dew Point:   Wind: 8mph
Humidity: 76%   Direction: 70°ENE
Pressure: 30.44"   Gusts: NA
Location:  47.58°N, 53.55°W
Report Text: CYYT 221500Z 07007KT 15SM FEW028 BKN150 08/04 A3044 RMK SC2AC5 SLP314
Loading
Personal Weather Stations






























Interactive Weather Map
Tropical Storm Tracking
New forecast layout! Learn more

10-Day Weather Forecast

Advertisements
Track Severe Weather on mobile